Time;durP1;ratioP1;P1;durP2;ratioP2;P2;SDS_P1;SDS_P2;PMS_P1;PMS_P2;Temp;Humidity;BMP_temperature;BMP_pressure;BME280_temperature;BME280_humidity;BME280_pressure;Samples;Min_cycle;Max_cycle;Signal;HPM_P1;HPM_P2
2023/09/02 00:01:43;;;;;;;15.20;8.10;;;;;;;-128.00;-1.00;-1.00;105614;1251;1004163;-80
2023/09/02 00:04:09;;;;;;;10.60;7.80;;;;;;;-128.00;-1.00;-1.00;105659;1251;1004962;-79
2023/09/02 00:06:36;;;;;;;9.20;7.00;;;;;;;-128.00;-1.00;-1.00;105622;1251;1004599;-79
2023/09/02 00:09:03;;;;;;;11.00;6.80;;;;;;;-128.00;-1.00;-1.00;105576;1251;1004543;-80
2023/09/02 00:11:30;;;;;;;10.10;6.80;;;;;;;-128.00;-1.00;-1.00;105602;1251;1003781;-78
2023/09/02 00:13:56;;;;;;;7.90;4.80;;;;;;;-128.00;-1.00;-1.00;105643;1251;1004347;-79
2023/09/02 00:16:23;;;;;;;12.70;6.60;;;;;;;-128.00;-1.00;-1.00;105464;1251;1005188;-80
2023/09/02 00:18:51;;;;;;;8.90;4.60;;;;;;;-128.00;-1.00;-1.00;105517;1251;1004426;-79
2023/09/02 00:21:18;;;;;;;9.80;5.30;;;;;;;-128.00;-1.00;-1.00;105897;1253;1003824;-79
2023/09/02 00:23:47;;;;;;;8.80;5.20;;;;;;;-128.00;-1.00;-1.00;105684;1250;1004986;-79
2023/09/02 00:26:15;;;;;;;8.80;4.10;;;;;;;-128.00;-1.00;-1.00;105591;1251;1061106;-80
2023/09/02 00:28:41;;;;;;;6.40;4.80;;;;;;;-128.00;-1.00;-1.00;105709;1251;1003753;-79
2023/09/02 00:31:07;;;;;;;9.30;5.30;;;;;;;-128.00;-1.00;-1.00;105722;1251;1003355;-79
2023/09/02 00:33:34;;;;;;;8.20;4.60;;;;;;;-128.00;-1.00;-1.00;105721;1250;1004462;-79
2023/09/02 00:36:00;;;;;;;9.60;4.50;;;;;;;-128.00;-1.00;-1.00;105808;1250;1005093;-79
2023/09/02 00:38:27;;;;;;;6.90;4.60;;;;;;;-128.00;-1.00;-1.00;105721;1250;1003700;-79
2023/09/02 00:41:00;;;;;;;7.70;4.80;;;;;;;-128.00;-1.00;-1.00;105644;1251;1003871;-79
2023/09/02 00:43:27;;;;;;;5.10;3.80;;;;;;;-128.00;-1.00;-1.00;105758;1251;1059287;-79
2023/09/02 00:45:54;;;;;;;5.00;3.50;;;;;;;-128.00;-1.00;-1.00;105731;1251;1003777;-79
2023/09/02 00:48:20;;;;;;;5.20;3.70;;;;;;;-128.00;-1.00;-1.00;105625;1251;1005045;-79
2023/09/02 00:50:47;;;;;;;4.30;3.40;;;;;;;-128.00;-1.00;-1.00;105632;1251;1004862;-79
2023/09/02 00:53:13;;;;;;;5.30;3.50;;;;;;;-128.00;-1.00;-1.00;105645;1251;1003784;-78
2023/09/02 00:55:40;;;;;;;5.20;3.80;;;;;;;-128.00;-1.00;-1.00;105488;1250;1005193;-79
2023/09/02 00:58:06;;;;;;;10.80;4.20;;;;;;;-128.00;-1.00;-1.00;105606;1251;1003612;-80
2023/09/02 01:00:33;;;;;;;6.70;4.60;;;;;;;-128.00;-1.00;-1.00;105574;1251;1005275;-79
2023/09/02 01:02:59;;;;;;;9.90;5.70;;;;;;;-128.00;-1.00;-1.00;105585;1251;1004013;-79
2023/09/02 01:05:26;;;;;;;7.60;5.50;;;;;;;-128.00;-1.00;-1.00;105613;1251;1004367;-79
2023/09/02 01:07:53;;;;;;;8.30;5.60;;;;;;;-128.00;-1.00;-1.00;105593;1251;1003808;-79
2023/09/02 01:10:19;;;;;;;9.80;5.70;;;;;;;-128.00;-1.00;-1.00;105357;1251;1156840;-79
2023/09/02 01:12:46;;;;;;;8.00;5.60;;;;;;;-128.00;-1.00;-1.00;105587;1251;1004598;-79
2023/09/02 01:15:12;;;;;;;7.30;5.20;;;;;;;-128.00;-1.00;-1.00;105483;1251;1004594;-79
2023/09/02 01:17:38;;;;;;;10.70;5.50;;;;;;;-128.00;-1.00;-1.00;105665;1251;1004523;-79
2023/09/02 01:20:06;;;;;;;7.70;5.70;;;;;;;-128.00;-1.00;-1.00;105729;1250;1004126;-79
2023/09/02 01:22:52;;;;;;;9.20;6.20;;;;;;;-128.00;-1.00;-1.00;105605;1250;1004836;-80
2023/09/02 01:25:50;;;;;;;9.30;5.30;;;;;;;-128.00;-1.00;-1.00;105709;1250;1047723;-79
2023/09/02 01:28:23;;;;;;;9.30;5.80;;;;;;;-128.00;-1.00;-1.00;105723;1251;1061853;-79
2023/09/02 01:30:49;;;;;;;6.30;4.80;;;;;;;-128.00;-1.00;-1.00;105650;1254;1058132;-79
2023/09/02 01:33:16;;;;;;;8.50;5.60;;;;;;;-128.00;-1.00;-1.00;105450;1250;1004702;-79
2023/09/02 01:35:42;;;;;;;9.50;4.90;;;;;;;-128.00;-1.00;-1.00;105595;1250;1004119;-79
2023/09/02 01:38:10;;;;;;;7.10;4.70;;;;;;;-128.00;-1.00;-1.00;105578;1251;1003939;-79
2023/09/02 01:40:36;;;;;;;9.00;4.90;;;;;;;-128.00;-1.00;-1.00;105408;1254;1003313;-79
2023/09/02 01:43:03;;;;;;;7.30;3.90;;;;;;;-128.00;-1.00;-1.00;105297;1254;1003849;-78
2023/09/02 01:45:35;;;;;;;6.80;4.30;;;;;;;-128.00;-1.00;-1.00;105295;1254;1003837;-79
2023/09/02 01:48:02;;;;;;;8.60;4.20;;;;;;;-128.00;-1.00;-1.00;105529;1254;1046925;-79
2023/09/02 01:50:29;;;;;;;7.60;4.20;;;;;;;-128.00;-1.00;-1.00;105568;1252;1004884;-79
2023/09/02 01:52:56;;;;;;;7.50;3.90;;;;;;;-128.00;-1.00;-1.00;105659;1251;1004667;-80
2023/09/02 01:55:23;;;;;;;8.60;4.00;;;;;;;-128.00;-1.00;-1.00;105506;1256;1004885;-79
2023/09/02 01:57:50;;;;;;;5.70;3.70;;;;;;;-128.00;-1.00;-1.00;105505;1251;1005146;-79
2023/09/02 02:00:16;;;;;;;7.70;4.10;;;;;;;-128.00;-1.00;-1.00;105504;1251;1003501;-79
2023/09/02 02:02:43;;;;;;;8.50;4.10;;;;;;;-128.00;-1.00;-1.00;105663;1251;1004418;-79
2023/09/02 02:05:11;;;;;;;6.50;4.10;;;;;;;-128.00;-1.00;-1.00;105722;1251;1005091;-79
2023/09/02 02:07:41;;;;;;;5.20;3.90;;;;;;;-128.00;-1.00;-1.00;105611;1252;1058505;-82
2023/09/02 02:10:11;;;;;;;5.40;4.30;;;;;;;-128.00;-1.00;-1.00;105641;1251;1059516;-81
2023/09/02 02:12:40;;;;;;;5.70;4.20;;;;;;;-128.00;-1.00;-1.00;105547;1251;1046646;-81
2023/09/02 02:15:10;;;;;;;7.30;5.10;;;;;;;-128.00;-1.00;-1.00;105593;1256;1047082;-81
2023/09/02 02:17:41;;;;;;;7.20;4.70;;;;;;;-128.00;-1.00;-1.00;105706;1256;1062036;-81
2023/09/02 02:20:11;;;;;;;6.80;4.90;;;;;;;-128.00;-1.00;-1.00;105593;1251;1059302;-81
2023/09/02 02:22:37;;;;;;;7.40;5.20;;;;;;;-128.00;-1.00;-1.00;105653;1251;1059410;-81
2023/09/02 02:25:04;;;;;;;10.90;5.60;;;;;;;-128.00;-1.00;-1.00;105731;1252;1004230;-81
2023/09/02 02:27:30;;;;;;;10.80;6.70;;;;;;;-128.00;-1.00;-1.00;105797;1251;1003925;-82
2023/09/02 02:30:00;;;;;;;9.30;5.70;;;;;;;-128.00;-1.00;-1.00;105463;1257;1004333;-82
2023/09/02 02:32:26;;;;;;;5.80;4.70;;;;;;;-128.00;-1.00;-1.00;105640;1256;1058253;-82
2023/09/02 02:34:54;;;;;;;6.50;4.60;;;;;;;-128.00;-1.00;-1.00;105628;1251;1003882;-82
2023/09/02 02:37:20;;;;;;;6.00;5.20;;;;;;;-128.00;-1.00;-1.00;105648;1251;1004921;-81
2023/09/02 02:39:47;;;;;;;7.20;5.20;;;;;;;-128.00;-1.00;-1.00;105680;1252;1004523;-81
2023/09/02 02:42:15;;;;;;;7.50;4.60;;;;;;;-128.00;-1.00;-1.00;105631;1251;1003796;-82
2023/09/02 02:44:41;;;;;;;7.80;4.60;;;;;;;-128.00;-1.00;-1.00;105711;1251;1004780;-82
2023/09/02 02:47:07;;;;;;;7.20;4.30;;;;;;;-128.00;-1.00;-1.00;105601;1251;1004195;-81
2023/09/02 02:49:34;;;;;;;6.50;4.40;;;;;;;-128.00;-1.00;-1.00;105630;1251;1003527;-82
2023/09/02 02:52:01;;;;;;;6.10;4.30;;;;;;;-128.00;-1.00;-1.00;105642;1251;1004443;-81
2023/09/02 02:54:27;;;;;;;8.30;4.60;;;;;;;-128.00;-1.00;-1.00;105623;1251;1004790;-82
2023/09/02 02:56:54;;;;;;;6.60;5.20;;;;;;;-128.00;-1.00;-1.00;105568;1251;1004239;-81
2023/09/02 02:59:21;;;;;;;7.20;4.70;;;;;;;-128.00;-1.00;-1.00;105593;1251;1003614;-82
2023/09/02 03:01:49;;;;;;;7.20;4.00;;;;;;;-128.00;-1.00;-1.00;105631;1251;1005006;-82
2023/09/02 03:04:17;;;;;;;11.50;6.00;;;;;;;-128.00;-1.00;-1.00;105622;1251;1047849;-81
2023/09/02 03:06:44;;;;;;;10.20;4.90;;;;;;;-128.00;-1.00;-1.00;105602;1251;1003981;-81
2023/09/02 03:09:10;;;;;;;5.60;4.40;;;;;;;-128.00;-1.00;-1.00;105641;1251;1003808;-81
2023/09/02 03:11:37;;;;;;;7.60;4.50;;;;;;;-128.00;-1.00;-1.00;105633;1251;1004024;-82
2023/09/02 03:14:03;;;;;;;5.30;4.60;;;;;;;-128.00;-1.00;-1.00;105630;1255;1004842;-82
2023/09/02 03:16:30;;;;;;;7.20;5.20;;;;;;;-128.00;-1.00;-1.00;105647;1251;1004276;-82
2023/09/02 03:18:56;;;;;;;6.40;4.70;;;;;;;-128.00;-1.00;-1.00;105771;1251;1004483;-81
2023/09/02 03:21:23;;;;;;;6.20;4.50;;;;;;;-128.00;-1.00;-1.00;105720;1251;1004722;-81
2023/09/02 03:23:49;;;;;;;6.80;4.40;;;;;;;-128.00;-1.00;-1.00;105746;1250;1004511;-81
2023/09/02 03:26:16;;;;;;;8.30;4.20;;;;;;;-128.00;-1.00;-1.00;105758;1253;1004439;-81
2023/09/02 03:28:42;;;;;;;8.30;4.80;;;;;;;-128.00;-1.00;-1.00;105750;1251;1004639;-79
2023/09/02 03:31:09;;;;;;;5.70;4.00;;;;;;;-128.00;-1.00;-1.00;105723;1251;1004595;-79
2023/09/02 03:33:36;;;;;;;9.70;5.10;;;;;;;-128.00;-1.00;-1.00;105724;1251;1004312;-79
2023/09/02 03:36:03;;;;;;;5.60;4.40;;;;;;;-128.00;-1.00;-1.00;105630;1251;1004404;-79
2023/09/02 03:38:30;;;;;;;9.90;4.40;;;;;;;-128.00;-1.00;-1.00;105701;1251;1005354;-79
2023/09/02 03:40:57;;;;;;;8.40;3.90;;;;;;;-128.00;-1.00;-1.00;105820;1251;1005151;-79
2023/09/02 03:43:23;;;;;;;6.20;4.90;;;;;;;-128.00;-1.00;-1.00;105779;1251;1004553;-79
2023/09/02 03:45:50;;;;;;;7.00;6.30;;;;;;;-128.00;-1.00;-1.00;105614;1251;1004295;-79
2023/09/02 03:48:19;;;;;;;8.90;4.60;;;;;;;-128.00;-1.00;-1.00;105556;1251;1003752;-79
2023/09/02 03:51:18;;;;;;;7.40;4.70;;;;;;;-128.00;-1.00;-1.00;105588;1251;1046801;-79
2023/09/02 03:53:45;;;;;;;5.40;4.30;;;;;;;-128.00;-1.00;-1.00;105378;1251;1047334;-81
2023/09/02 03:56:11;;;;;;;7.80;4.70;;;;;;;-128.00;-1.00;-1.00;105616;1251;1005380;-81
2023/09/02 03:58:38;;;;;;;13.80;4.80;;;;;;;-128.00;-1.00;-1.00;105666;1251;1003660;-81
2023/09/02 04:01:04;;;;;;;4.60;4.10;;;;;;;-128.00;-1.00;-1.00;105655;1251;1004122;-81
2023/09/02 04:03:37;;;;;;;8.40;4.10;;;;;;;-128.00;-1.00;-1.00;105606;1251;1005099;-82
2023/09/02 04:06:04;;;;;;;7.50;4.30;;;;;;;-128.00;-1.00;-1.00;105623;1251;1049183;-82
2023/09/02 04:08:34;;;;;;;7.40;4.20;;;;;;;-128.00;-1.00;-1.00;105651;1251;1003917;-81
2023/09/02 04:11:03;;;;;;;8.30;4.40;;;;;;;-128.00;-1.00;-1.00;105556;1251;1057417;-81
2023/09/02 04:13:30;;;;;;;6.80;4.90;;;;;;;-128.00;-1.00;-1.00;105595;1251;1058975;-82
2023/09/02 04:15:57;;;;;;;5.80;4.10;;;;;;;-128.00;-1.00;-1.00;105638;1251;1004619;-81
2023/09/02 04:18:24;;;;;;;6.20;4.00;;;;;;;-128.00;-1.00;-1.00;105711;1251;1004667;-81
2023/09/02 04:20:51;;;;;;;7.70;4.80;;;;;;;-128.00;-1.00;-1.00;105728;1250;1003271;-81
2023/09/02 04:23:18;;;;;;;12.50;4.90;;;;;;;-128.00;-1.00;-1.00;105722;1250;1004225;-82
2023/09/02 04:25:49;;;;;;;7.80;5.10;;;;;;;-128.00;-1.00;-1.00;105905;1250;1004282;-82
2023/09/02 04:28:15;;;;;;;8.20;5.40;;;;;;;-128.00;-1.00;-1.00;105906;1251;1046323;-81
2023/09/02 04:30:42;;;;;;;7.50;5.40;;;;;;;-128.00;-1.00;-1.00;105752;1250;1003470;-81
2023/09/02 04:33:09;;;;;;;6.60;4.60;;;;;;;-128.00;-1.00;-1.00;105733;1251;1003852;-81
2023/09/02 04:35:37;;;;;;;5.60;3.80;;;;;;;-128.00;-1.00;-1.00;105750;1251;1003993;-81
2023/09/02 04:38:04;;;;;;;8.30;4.50;;;;;;;-128.00;-1.00;-1.00;105701;1251;1004036;-81
2023/09/02 04:40:31;;;;;;;7.00;4.70;;;;;;;-128.00;-1.00;-1.00;105543;1251;1003986;-79
2023/09/02 04:42:57;;;;;;;7.60;4.60;;;;;;;-128.00;-1.00;-1.00;105592;1251;1003903;-79
2023/09/02 04:45:24;;;;;;;6.70;4.50;;;;;;;-128.00;-1.00;-1.00;105630;1250;1004623;-79
2023/09/02 04:47:50;;;;;;;4.30;3.80;;;;;;;-128.00;-1.00;-1.00;105551;1251;1003869;-79
2023/09/02 04:50:17;;;;;;;4.90;4.30;;;;;;;-128.00;-1.00;-1.00;105432;1251;1004509;-79
2023/09/02 04:52:44;;;;;;;5.50;4.00;;;;;;;-128.00;-1.00;-1.00;105589;1251;1003863;-78
2023/09/02 04:55:11;;;;;;;7.80;4.00;;;;;;;-128.00;-1.00;-1.00;105629;1251;1004726;-81
2023/09/02 04:57:37;;;;;;;7.10;4.60;;;;;;;-128.00;-1.00;-1.00;105631;1251;1004048;-82
2023/09/02 05:00:07;;;;;;;5.40;4.20;;;;;;;-128.00;-1.00;-1.00;105823;1250;1058760;-82
2023/09/02 05:02:33;;;;;;;12.00;4.90;;;;;;;-128.00;-1.00;-1.00;105625;1250;1004437;-81
2023/09/02 05:05:00;;;;;;;7.10;4.80;;;;;;;-128.00;-1.00;-1.00;105582;1251;1004888;-82
2023/09/02 05:07:26;;;;;;;8.90;5.60;;;;;;;-128.00;-1.00;-1.00;105608;1251;1004635;-82
2023/09/02 05:09:53;;;;;;;9.10;5.40;;;;;;;-128.00;-1.00;-1.00;105645;1251;1004075;-81
2023/09/02 05:12:20;;;;;;;6.70;4.90;;;;;;;-128.00;-1.00;-1.00;105625;1251;1004499;-82
2023/09/02 05:14:46;;;;;;;7.20;5.60;;;;;;;-128.00;-1.00;-1.00;105584;1251;1005246;-81
2023/09/02 05:17:12;;;;;;;8.50;5.40;;;;;;;-128.00;-1.00;-1.00;105627;1256;1004256;-82
2023/09/02 05:19:39;;;;;;;9.60;5.40;;;;;;;-128.00;-1.00;-1.00;105742;1250;1004835;-81
2023/09/02 05:22:05;;;;;;;9.60;5.60;;;;;;;-128.00;-1.00;-1.00;105733;1250;1003495;-81
2023/09/02 05:24:32;;;;;;;11.80;6.80;;;;;;;-128.00;-1.00;-1.00;105755;1250;1004669;-82
2023/09/02 05:26:58;;;;;;;10.60;6.80;;;;;;;-128.00;-1.00;-1.00;105721;1251;1004482;-81
2023/09/02 05:29:25;;;;;;;8.60;5.80;;;;;;;-128.00;-1.00;-1.00;105702;1251;1003617;-81
2023/09/02 05:31:51;;;;;;;8.30;5.40;;;;;;;-128.00;-1.00;-1.00;105739;1251;1004479;-82
2023/09/02 05:34:17;;;;;;;6.70;4.90;;;;;;;-128.00;-1.00;-1.00;105762;1251;1003413;-82
2023/09/02 05:36:44;;;;;;;8.50;5.60;;;;;;;-128.00;-1.00;-1.00;105728;1251;1005159;-82
2023/09/02 05:39:11;;;;;;;7.30;5.20;;;;;;;-128.00;-1.00;-1.00;105679;1251;1004057;-81
2023/09/02 05:41:38;;;;;;;9.00;5.90;;;;;;;-128.00;-1.00;-1.00;105635;1251;1003900;-81
2023/09/02 05:44:05;;;;;;;7.10;4.90;;;;;;;-128.00;-1.00;-1.00;105356;1251;1003880;-82
2023/09/02 05:46:31;;;;;;;10.50;6.20;;;;;;;-128.00;-1.00;-1.00;105621;1250;1004191;-82
2023/09/02 05:48:58;;;;;;;8.20;6.00;;;;;;;-128.00;-1.00;-1.00;105630;1251;1005346;-81
2023/09/02 05:51:25;;;;;;;5.50;5.00;;;;;;;-128.00;-1.00;-1.00;105630;1251;1004552;-82
2023/09/02 05:53:51;;;;;;;9.30;4.90;;;;;;;-128.00;-1.00;-1.00;105639;1251;1004871;-81
2023/09/02 05:56:18;;;;;;;8.60;5.40;;;;;;;-128.00;-1.00;-1.00;105559;1251;1003715;-82
2023/09/02 05:58:44;;;;;;;9.20;5.70;;;;;;;-128.00;-1.00;-1.00;105590;1251;1004576;-81
2023/09/02 06:01:11;;;;;;;9.80;6.70;;;;;;;-128.00;-1.00;-1.00;105563;1251;1004667;-82
2023/09/02 06:03:37;;;;;;;6.20;5.50;;;;;;;-128.00;-1.00;-1.00;105593;1251;1005194;-82
2023/09/02 06:06:11;;;;;;;8.00;6.80;;;;;;;-128.00;-1.00;-1.00;105612;1251;1003695;-82
2023/09/02 06:08:38;;;;;;;9.40;7.70;;;;;;;-128.00;-1.00;-1.00;105826;1251;1047422;-82
2023/09/02 06:11:04;;;;;;;9.90;7.00;;;;;;;-128.00;-1.00;-1.00;105850;1250;1004628;-82
2023/09/02 06:13:31;;;;;;;8.90;6.30;;;;;;;-128.00;-1.00;-1.00;105833;1251;1004827;-81
2023/09/02 06:16:01;;;;;;;18.00;7.00;;;;;;;-128.00;-1.00;-1.00;105721;1251;1004904;-82
2023/09/02 06:18:28;;;;;;;15.90;10.70;;;;;;;-128.00;-1.00;-1.00;105754;1249;1047075;-82
2023/09/02 06:20:55;;;;;;;15.50;11.90;;;;;;;-128.00;-1.00;-1.00;105742;1251;1005819;-81
2023/09/02 06:23:24;;;;;;;19.40;14.30;;;;;;;-128.00;-1.00;-1.00;105748;1250;1003838;-82
2023/09/02 06:26:09;;;;;;;19.30;15.30;;;;;;;-128.00;-1.00;-1.00;105739;1251;1058668;-82
2023/09/02 06:28:35;;;;;;;17.00;12.90;;;;;;;-128.00;-1.00;-1.00;105536;1251;1059989;-82
2023/09/02 06:31:08;;;;;;;14.60;9.30;;;;;;;-128.00;-1.00;-1.00;105522;1253;1005456;-82
2023/09/02 06:33:35;;;;;;;12.10;9.20;;;;;;;-128.00;-1.00;-1.00;105533;1252;1047633;-82
2023/09/02 06:36:11;;;;;;;13.20;8.50;;;;;;;-128.00;-1.00;-1.00;105456;1252;1004672;-82
2023/09/02 06:38:38;;;;;;;10.10;7.70;;;;;;;-128.00;-1.00;-1.00;105581;1253;1058487;-82
2023/09/02 06:41:12;;;;;;;11.50;7.00;;;;;;;-128.00;-1.00;-1.00;105555;1251;1004504;-82
2023/09/02 06:43:38;;;;;;;11.10;8.30;;;;;;;-128.00;-1.00;-1.00;105647;1251;1046470;-83
2023/09/02 06:46:15;;;;;;;16.20;7.10;;;;;;;-128.00;-1.00;-1.00;105523;1253;1003782;-81
2023/09/02 06:48:43;;;;;;;9.30;6.80;;;;;;;-128.00;-1.00;-1.00;105732;1251;1061453;-82
2023/09/02 06:51:11;;;;;;;8.00;5.90;;;;;;;-128.00;-1.00;-1.00;105702;1251;1057608;-82
2023/09/02 06:53:38;;;;;;;8.30;6.20;;;;;;;-128.00;-1.00;-1.00;105534;1251;1003981;-81
2023/09/02 06:56:08;;;;;;;9.50;5.50;;;;;;;-128.00;-1.00;-1.00;105509;1251;1003447;-81
2023/09/02 06:58:38;;;;;;;9.90;6.00;;;;;;;-128.00;-1.00;-1.00;105685;1250;1046897;-82
2023/09/02 07:01:04;;;;;;;7.60;6.00;;;;;;;-128.00;-1.00;-1.00;105654;1250;1061535;-82
2023/09/02 07:03:31;;;;;;;13.90;7.30;;;;;;;-128.00;-1.00;-1.00;105594;1251;1005130;-82
2023/09/02 07:06:08;;;;;;;8.70;6.10;;;;;;;-128.00;-1.00;-1.00;105559;1253;1003740;-82
2023/09/02 07:08:35;;;;;;;9.60;7.00;;;;;;;-128.00;-1.00;-1.00;105575;1251;1045205;-81
2023/09/02 07:11:01;;;;;;;8.10;6.80;;;;;;;-128.00;-1.00;-1.00;105591;1251;1003601;-82
2023/09/02 07:13:28;;;;;;;8.70;6.00;;;;;;;-128.00;-1.00;-1.00;105596;1251;1003602;-82
2023/09/02 07:16:01;;;;;;;9.40;6.80;;;;;;;-128.00;-1.00;-1.00;105546;1251;1005369;-82
2023/09/02 07:18:27;;;;;;;8.90;7.50;;;;;;;-128.00;-1.00;-1.00;105671;1249;1060775;-79
2023/09/02 07:21:01;;;;;;;11.60;7.20;;;;;;;-128.00;-1.00;-1.00;105585;1253;1004283;-79
2023/09/02 07:23:28;;;;;;;19.10;10.30;;;;;;;-128.00;-1.00;-1.00;105657;1251;1046806;-79
2023/09/02 07:25:56;;;;;;;12.20;8.40;;;;;;;-128.00;-1.00;-1.00;105548;1250;1004985;-79
2023/09/02 07:28:22;;;;;;;18.20;12.90;;;;;;;-128.00;-1.00;-1.00;105551;1251;1004085;-79
2023/09/02 07:30:49;;;;;;;12.30;9.30;;;;;;;-128.00;-1.00;-1.00;105562;1251;1003804;-80
2023/09/02 07:33:15;;;;;;;13.40;8.20;;;;;;;-128.00;-1.00;-1.00;105533;1251;1005106;-79
2023/09/02 07:35:42;;;;;;;13.30;9.60;;;;;;;-128.00;-1.00;-1.00;105481;1253;1003901;-80
2023/09/02 07:38:08;;;;;;;16.20;10.80;;;;;;;-128.00;-1.00;-1.00;105524;1251;1003985;-79
2023/09/02 07:40:35;;;;;;;10.50;8.90;;;;;;;-128.00;-1.00;-1.00;105644;1252;1004811;-80
2023/09/02 07:43:02;;;;;;;17.50;10.20;;;;;;;-128.00;-1.00;-1.00;105321;1254;1004342;-79
2023/09/02 07:45:29;;;;;;;15.00;12.70;;;;;;;-128.00;-1.00;-1.00;105496;1253;1004059;-79
2023/09/02 07:47:55;;;;;;;11.50;9.50;;;;;;;-128.00;-1.00;-1.00;105526;1251;1004463;-80
2023/09/02 07:50:22;;;;;;;10.10;8.00;;;;;;;-128.00;-1.00;-1.00;105521;1251;1003382;-79
2023/09/02 07:52:49;;;;;;;13.20;8.20;;;;;;;-128.00;-1.00;-1.00;105573;1250;1004331;-79
2023/09/02 07:55:15;;;;;;;11.30;7.60;;;;;;;-128.00;-1.00;-1.00;105515;1254;1003941;-79
2023/09/02 07:57:41;;;;;;;9.40;8.40;;;;;;;-128.00;-1.00;-1.00;105505;1250;1003812;-80
2023/09/02 08:00:08;;;;;;;10.00;8.40;;;;;;;-128.00;-1.00;-1.00;105378;1253;1004258;-79
2023/09/02 08:02:35;;;;;;;12.00;8.20;;;;;;;-128.00;-1.00;-1.00;105579;1250;1004231;-80
2023/09/02 08:05:01;;;;;;;10.40;9.00;;;;;;;-128.00;-1.00;-1.00;105576;1250;1003427;-80
2023/09/02 08:07:27;;;;;;;10.00;9.00;;;;;;;-128.00;-1.00;-1.00;105566;1251;1004448;-80
2023/09/02 08:09:54;;;;;;;9.90;8.70;;;;;;;-128.00;-1.00;-1.00;105519;1253;1004527;-80
2023/09/02 08:12:20;;;;;;;16.50;9.70;;;;;;;-128.00;-1.00;-1.00;105547;1252;1003922;-80
2023/09/02 08:14:47;;;;;;;12.20;10.40;;;;;;;-128.00;-1.00;-1.00;105596;1251;1004832;-80
2023/09/02 08:17:14;;;;;;;10.40;9.40;;;;;;;-128.00;-1.00;-1.00;105656;1251;1003514;-80
2023/09/02 08:19:40;;;;;;;11.70;9.10;;;;;;;-128.00;-1.00;-1.00;105613;1250;1003858;-80
2023/09/02 08:22:07;;;;;;;11.90;8.80;;;;;;;-128.00;-1.00;-1.00;105425;1251;1005017;-80
2023/09/02 08:24:33;;;;;;;14.00;11.20;;;;;;;-128.00;-1.00;-1.00;105597;1250;1004693;-80
2023/09/02 08:27:00;;;;;;;14.40;10.30;;;;;;;-128.00;-1.00;-1.00;105632;1251;1004434;-79
2023/09/02 08:29:26;;;;;;;12.70;10.80;;;;;;;-128.00;-1.00;-1.00;105621;1250;1003603;-80
2023/09/02 08:31:53;;;;;;;12.70;10.10;;;;;;;-128.00;-1.00;-1.00;105538;1251;1004381;-79
2023/09/02 08:34:20;;;;;;;13.20;10.30;;;;;;;-128.00;-1.00;-1.00;105577;1250;1004062;-80
2023/09/02 08:36:46;;;;;;;19.50;15.30;;;;;;;-128.00;-1.00;-1.00;105616;1251;1004288;-80
2023/09/02 08:39:13;;;;;;;11.50;8.70;;;;;;;-128.00;-1.00;-1.00;105600;1250;1004549;-80
2023/09/02 08:41:41;;;;;;;12.10;9.10;;;;;;;-128.00;-1.00;-1.00;105304;1253;1004173;-80
2023/09/02 08:44:07;;;;;;;10.80;9.20;;;;;;;-128.00;-1.00;-1.00;105549;1251;1004696;-81
2023/09/02 08:46:34;;;;;;;10.40;7.90;;;;;;;-128.00;-1.00;-1.00;105472;1251;1003672;-80
2023/09/02 08:49:01;;;;;;;9.00;7.60;;;;;;;-128.00;-1.00;-1.00;105425;1252;1003871;-80
2023/09/02 08:51:28;;;;;;;11.10;8.00;;;;;;;-128.00;-1.00;-1.00;105289;1253;1003878;-80
2023/09/02 08:53:55;;;;;;;9.00;8.10;;;;;;;-128.00;-1.00;-1.00;105603;1250;1004821;-80
2023/09/02 08:56:21;;;;;;;8.90;7.80;;;;;;;-128.00;-1.00;-1.00;105553;1252;1004725;-80
2023/09/02 08:58:48;;;;;;;9.10;8.00;;;;;;;-128.00;-1.00;-1.00;105543;1253;1004312;-80
2023/09/02 09:01:19;;;;;;;10.10;6.90;;;;;;;-128.00;-1.00;-1.00;105442;1251;1004957;-80
2023/09/02 09:03:51;;;;;;;8.90;6.80;;;;;;;-128.00;-1.00;-1.00;105553;1250;1062346;-80
2023/09/02 09:06:21;;;;;;;7.30;6.60;;;;;;;-128.00;-1.00;-1.00;105588;1251;1057837;-81
2023/09/02 09:08:48;;;;;;;7.10;5.80;;;;;;;-128.00;-1.00;-1.00;105611;1250;1059503;-80
2023/09/02 09:11:15;;;;;;;8.20;7.10;;;;;;;-128.00;-1.00;-1.00;105527;1251;1005105;-80
2023/09/02 09:13:45;;;;;;;7.60;6.10;;;;;;;-128.00;-1.00;-1.00;105517;1251;1004518;-80
2023/09/02 09:16:17;;;;;;;6.90;6.20;;;;;;;-128.00;-1.00;-1.00;105564;1251;1061533;-81
2023/09/02 09:18:43;;;;;;;6.10;5.30;;;;;;;-128.00;-1.00;-1.00;105628;1251;1058781;-80
2023/09/02 09:21:10;;;;;;;6.10;5.50;;;;;;;-128.00;-1.00;-1.00;105563;1251;1004260;-81
2023/09/02 09:23:36;;;;;;;9.40;5.50;;;;;;;-128.00;-1.00;-1.00;105447;1251;1003946;-81
2023/09/02 09:26:03;;;;;;;9.60;6.20;;;;;;;-128.00;-1.00;-1.00;105601;1250;1003253;-81
2023/09/02 09:28:57;;;;;;;7.00;5.60;;;;;;;-128.00;-1.00;-1.00;105526;1251;1003811;-81
2023/09/02 09:31:25;;;;;;;8.00;5.70;;;;;;;-128.00;-1.00;-1.00;105645;1251;1059077;-81
2023/09/02 09:34:01;;;;;;;9.90;5.70;;;;;;;-128.00;-1.00;-1.00;105557;1250;1004119;-81
2023/09/02 09:36:29;;;;;;;7.00;5.90;;;;;;;-128.00;-1.00;-1.00;105566;1251;1046608;-81
2023/09/02 09:39:00;;;;;;;9.50;5.90;;;;;;;-128.00;-1.00;-1.00;105708;1250;1005201;-81
2023/09/02 09:41:27;;;;;;;7.40;5.40;;;;;;;-128.00;-1.00;-1.00;105623;1252;1060913;-81
2023/09/02 09:44:07;;;;;;;9.40;5.20;;;;;;;-128.00;-1.00;-1.00;105603;1251;1003813;-82
2023/09/02 09:46:35;;;;;;;12.00;5.60;;;;;;;-128.00;-1.00;-1.00;105564;1250;1058754;-81
2023/09/02 09:49:02;;;;;;;7.30;4.70;;;;;;;-128.00;-1.00;-1.00;105550;1251;1004313;-81
2023/09/02 09:51:29;;;;;;;7.20;5.30;;;;;;;-128.00;-1.00;-1.00;105393;1253;1004554;-81
2023/09/02 09:53:56;;;;;;;5.40;4.80;;;;;;;-128.00;-1.00;-1.00;105460;1251;1004606;-81
2023/09/02 09:56:23;;;;;;;8.60;4.70;;;;;;;-128.00;-1.00;-1.00;105567;1251;1004329;-81
2023/09/02 09:58:49;;;;;;;7.90;6.10;;;;;;;-128.00;-1.00;-1.00;105510;1251;1004736;-81
2023/09/02 10:01:25;;;;;;;6.20;4.90;;;;;;;-128.00;-1.00;-1.00;105587;1250;1003972;-81
2023/09/02 10:03:54;;;;;;;8.50;5.80;;;;;;;-128.00;-1.00;-1.00;105475;1253;1047069;-81
2023/09/02 10:06:20;;;;;;;6.10;5.10;;;;;;;-128.00;-1.00;-1.00;105583;1251;1061719;-81
2023/09/02 10:08:54;;;;;;;6.70;4.70;;;;;;;-128.00;-1.00;-1.00;105326;1252;1004796;-81
2023/09/02 10:11:24;;;;;;;7.70;5.00;;;;;;;-128.00;-1.00;-1.00;105498;1251;1059577;-81
2023/09/02 10:13:52;;;;;;;5.80;5.30;;;;;;;-128.00;-1.00;-1.00;105501;1251;1045945;-80
2023/09/02 10:16:21;;;;;;;6.30;4.90;;;;;;;-128.00;-1.00;-1.00;105741;1251;1004989;-81
2023/09/02 10:18:49;;;;;;;9.70;6.60;;;;;;;-128.00;-1.00;-1.00;105365;1253;1061571;-81
2023/09/02 10:21:17;;;;;;;9.30;5.30;;;;;;;-128.00;-1.00;-1.00;105568;1252;1004318;-81
2023/09/02 10:23:48;;;;;;;12.00;6.60;;;;;;;-128.00;-1.00;-1.00;105540;1253;1004063;-81
2023/09/02 10:26:19;;;;;;;6.20;5.20;;;;;;;-128.00;-1.00;-1.00;105385;1253;1045795;-81
2023/09/02 10:28:46;;;;;;;6.80;6.00;;;;;;;-128.00;-1.00;-1.00;105560;1252;1047019;-81
2023/09/02 10:31:18;;;;;;;7.40;5.50;;;;;;;-128.00;-1.00;-1.00;105734;1250;1003986;-81
2023/09/02 10:33:45;;;;;;;6.10;5.00;;;;;;;-128.00;-1.00;-1.00;105586;1250;1057928;-81
2023/09/02 10:36:14;;;;;;;7.50;4.60;;;;;;;-128.00;-1.00;-1.00;105492;1251;1004854;-81
2023/09/02 10:38:41;;;;;;;5.60;5.00;;;;;;;-128.00;-1.00;-1.00;105382;1257;1046926;-81
2023/09/02 10:41:12;;;;;;;6.40;4.90;;;;;;;-128.00;-1.00;-1.00;105484;1251;1004111;-82
2023/09/02 10:43:39;;;;;;;7.20;5.40;;;;;;;-128.00;-1.00;-1.00;105690;1251;1061421;-81
2023/09/02 10:46:09;;;;;;;8.90;5.10;;;;;;;-128.00;-1.00;-1.00;105744;1251;1004334;-82
2023/09/02 10:48:42;;;;;;;5.70;5.20;;;;;;;-128.00;-1.00;-1.00;105741;1253;1058655;-81
2023/09/02 10:51:08;;;;;;;6.30;5.60;;;;;;;-128.00;-1.00;-1.00;105590;1252;1045787;-83
2023/09/02 10:53:47;;;;;;;5.40;4.50;;;;;;;-128.00;-1.00;-1.00;105599;1253;1004799;-82
2023/09/02 10:56:26;;;;;;;5.10;4.10;;;;;;;-128.00;-1.00;-1.00;105549;1253;1061877;-82
2023/09/02 10:58:53;;;;;;;5.50;4.40;;;;;;;-128.00;-1.00;-1.00;105544;1253;1059071;-81
2023/09/02 11:01:20;;;;;;;6.50;4.30;;;;;;;-128.00;-1.00;-1.00;105485;1253;1004032;-81
2023/09/02 11:03:50;;;;;;;4.10;3.70;;;;;;;-128.00;-1.00;-1.00;105508;1253;1004045;-81
2023/09/02 11:06:17;;;;;;;6.10;3.90;;;;;;;-128.00;-1.00;-1.00;105405;1253;1046501;-81
2023/09/02 11:08:51;;;;;;;6.70;4.10;;;;;;;-128.00;-1.00;-1.00;105535;1253;1004885;-81
2023/09/02 11:11:18;;;;;;;5.60;4.20;;;;;;;-128.00;-1.00;-1.00;105720;1253;1058090;-81
2023/09/02 11:14:06;;;;;;;6.40;4.00;;;;;;;-128.00;-1.00;-1.00;105557;1252;1004666;-81
2023/09/02 11:16:38;;;;;;;6.50;3.70;;;;;;;-128.00;-1.00;-1.00;105553;1253;1046231;-81
2023/09/02 11:19:08;;;;;;;4.40;4.00;;;;;;;-128.00;-1.00;-1.00;105777;1250;1046828;-81